Perryville, AR (72126)

6:57 PM CDT on July 07, 2015 (GMT -0500)
Wye Mountain Arkansas, USA | | Change Station
CLOSE
Current Station
Personal Weather Station
Location: Wye, AR
Elevation: 722 ft
Nearby Weather Stations

Elev 722 ft 34.94 °N, 92.65 °W | Updated 2 minutes ago

Mostly Cloudy
Mostly Cloudy
89.4 °F
Feels Like 99 °F
N
8.0
Wind Variable Wind from South
Gusts 8.0 mph

Today
High -- | Low -- °F
--% Chance of Precip.
Yesterday
High -- | Low -- °F
Precip. -- in
6:04 AM 8:28 PM
Waning Gibbous, 60% visible
Pressure 29.98 in
Visibility 7.0 miles
Clouds Scattered Clouds 2600 ft
Mostly Cloudy 3900 ft
Mostly Cloudy 6000 ft
Heat Index 99 °F
Dew Point 74 °F
Humidity 61%
Rainfall 0.00 in
Snow Depth Not available.
UV 1 out of 12
Pollen 2.80 out of 12
Air Quality Not available.
Flu Activity Not available.
METAR KRUE 072353Z AUTO 32011G16KT 7SM SCT026 BKN039 BKN060 25/23 A3000 RMK AO2 LTG DSNT E-S SLP150 60006 T02500228 10317 20250 53007 $

More Conditions Fewer Conditions

Pressure 29.98 in
Visibility 7.0 miles
Clouds Scattered Clouds 2600 ft
Mostly Cloudy 3900 ft
Mostly Cloudy 6000 ft
Heat Index 99 °F
Dew Point 74 °F
Humidity 61%
Rainfall 0.00 in
Snow Depth Not available.
UV 1 out of 12
Pollen 2.80 out of 12
Air Quality Not available.
Flu Activity Not available.
METAR KRUE 072353Z AUTO 32011G16KT 7SM SCT026 BKN039 BKN060 25/23 A3000 RMK AO2 LTG DSNT E-S SLP150 60006 T02500228 10317 20250 53007 $

More Conditions Fewer Conditions

10-Day Weather Forecast

×

Almanac

Astronomy

Jul. 07, 2015 Rise Set
Actual Time
Civil Twilight
Nautical Twilight
Astronomical Twilight
Moon
Length of Visible Light
Length of Day
Tomorrow will be .
, % of the Moon is Illuminated

Today's Extremes

State Highs State Lows

Community

WunderPhotos

Upload Photos

1,835,961 photos uploaded!

WunderBlogs® & News

Nearby

Air Quality

  Air Quality AQ Index Pollutant
Not available.

Snow Depth

Station Depth Elevation

Earthquake Activity

City Distance Mag. Time & Date
Minimum magnitude displayed is 2.5.

Coastal Water Temperatures

Place Temperature

Stations

Nearby Weather Stations

Station Location Temp. Windchill Dew Point Humidity Wind Precip. Elev Updated Type